Latest Weather Observations for Goulburn Airport

IDN60801

Issued at 2:33 pm EDT Saturday 20 December 2014 (issued every 30 minutes, with the page automatically refreshed every 10 minutes)

About weather observations | Map of weather stations | Latest weather observations for NSW | Other Formats
Station Details ID: 070330 Name: GOULBURN AIRPORT AWS Lat: -34.81 Lon: 149.73 Height: 640.0 m
Data from the previous 72 hours. | See also: Recent months at Goulburn Airport
Date/Time
EDT
Temp
°C
App
Temp
°C
Dew
Point
Rel
Hum
%
Delta-T
°C
Wind Press
QNH
hPa
Press
MSL
hPa
Rain
since 9 am
mm
Dir
 
Spd
km/h
Gust
km/h
Spd
kts
Gust
kts
20/02:30pm 23.6 21.3 7.3 35 8.8 W 9 15 5 8 1016.7 1014.4 0.0
20/02:00pm 23.1 20.5 6.0 33 9.0 WSW 9 26 5 14 1016.9 1014.6 0.0
20/01:30pm 22.4 19.2 7.0 37 8.2 NNW 13 20 7 11 1017.1 1014.8 0.0
20/01:00pm 21.5 18.5 6.2 37 8.0 N 11 32 6 17 1017.4 1015.1 0.0
20/12:30pm 20.7 18.9 8.0 44 6.8 SSE 7 15 4 8 1017.8 1015.5 0.0
20/12:00pm 19.7 17.6 8.1 47 6.2 NNE 9 20 5 11 1018.3 1016.0 0.0
20/11:30am 19.0 16.9 8.4 50 5.7 NE 9 17 5 9 1018.6 1016.3 0.0
20/11:00am 18.4 16.5 9.2 55 5.0 NW 9 17 5 9 1018.7 1016.4 0.0
20/10:00am 15.4 13.4 8.6 64 3.6 NNE 9 17 5 9 1018.7 1016.4 0.0
20/09:30am 15.0 11.7 8.0 63 3.6 NE 15 22 8 12 1019.0 1016.7 0.0
20/09:00am 14.6 11.9 8.8 68 3.0 NNE 13 19 7 10 1019.1 1016.8 0.0
20/08:40am 13.9 10.3 8.5 70 2.8 NE 17 22 9 12 1019.1 1016.8 0.0
20/08:00am 13.1 9.7 9.0 76 2.1 NE 17 24 9 13 1018.8 1016.5 0.0
20/07:30am 12.5 9.4 8.8 78 1.9 ENE 15 20 8 11 1018.7 1016.4 0.0
20/07:10am 12.4 9.4 9.1 80 1.7 ENE 15 20 8 11 1018.5 1016.2 0.0
20/07:00am 12.6 9.6 9.4 81 1.7 NE 15 17 8 9 1018.4 1016.1 0.0
20/06:39am 11.7 8.9 8.6 81 1.6 ENE 13 19 7 10 1018.3 1016.0 0.0
20/06:30am 12.0 9.3 8.8 81 1.7 ENE 13 19 7 10 1018.1 1015.9 0.0
20/06:07am 11.6 10.1 9.2 85 1.2 ENE 7 9 4 5 1018.0 1015.8 0.0
20/05:30am 11.7 9.4 8.9 83 1.4 ENE 11 15 6 8 1018.0 1015.8 0.0
20/05:00am 11.6 10.1 9.0 84 1.3 ENE 7 7 4 4 1017.9 1015.7 0.0
20/04:30am 11.5 9.6 8.9 84 1.3 E 9 11 5 6 1017.7 1015.4 0.0
20/04:09am 11.7 9.8 8.9 83 1.4 E 9 13 5 7 1017.7 1015.4 0.0
20/04:00am 12.0 9.3 8.8 81 1.6 E 13 17 7 9 1017.7 1015.4 0.0
20/03:30am 12.2 9.9 9.0 81 1.7 E 11 17 6 9 1017.8 1015.5 0.0
20/03:00am 12.0 9.6 8.8 81 1.6 E 11 17 6 9 1018.0 1015.8 0.0
20/02:30am 12.2 9.4 8.5 78 1.9 E 13 17 7 9 1018.3 1016.0 0.0
20/02:00am 12.3 9.9 8.8 79 1.8 ENE 11 15 6 8 1018.4 1016.1 0.0
20/01:58am 12.3 9.9 8.8 79 1.8 E 11 15 6 8 1018.4 1016.1 0.0
20/01:30am 12.3 8.7 8.4 77 2.0 E 17 20 9 11 1018.6 1016.3 0.0
20/01:00am 12.4 8.2 8.3 76 2.1 E 20 26 11 14 1018.7 1016.4 0.0
20/12:30am 12.6 8.6 8.1 74 2.3 ENE 19 24 10 13 1019.0 1016.7 0.0
20/12:00am 12.7 9.1 8.4 75 2.2 ENE 17 22 9 12 1019.1 1016.8 0.0
 
Date/Time
EDT
Temp
°C
App
Temp
°C
Dew
Point
Rel
Hum
%
Delta-T
°C
Wind Press
QNH
hPa
Press
MSL
hPa
Rain
since 9 am
mm
Dir
 
Spd
km/h
Gust
km/h
Spd
kts
Gust
kts
19/11:30pm 12.8 9.6 8.3 74 2.3 ENE 15 20 8 11 1019.4 1017.2 0.0
19/11:00pm 12.8 9.2 8.5 75 2.2 E 17 22 9 12 1019.4 1017.2 0.0
19/10:30pm 12.7 9.5 8.6 76 2.1 E 15 20 8 11 1019.2 1016.9 0.0
19/10:00pm 12.1 8.9 8.4 78 1.9 E 15 19 8 10 1019.0 1016.7 0.0
19/09:30pm 11.6 8.9 7.5 76 2.1 E 11 17 6 9 1018.6 1016.3 0.0
19/09:00pm 12.5 8.2 7.8 73 2.4 E 20 26 11 14 1018.0 1015.8 0.0
19/08:30pm 13.0 8.7 7.9 71 2.6 E 20 30 11 16 1017.8 1015.5 0.0
19/08:00pm 13.8 9.7 8.0 68 3.0 E 19 28 10 15 1017.2 1014.9 0.0
19/07:30pm 15.0 10.0 8.0 63 3.6 E 24 33 13 18 1016.4 1014.1 0.0
19/07:00pm 16.4 10.6 7.9 57 4.4 ESE 28 37 15 20 1015.6 1013.3 0.0
19/06:30pm 18.2 12.7 7.6 50 5.6 E 26 41 14 22 1014.4 1012.1 0.0
19/06:00pm 22.5 16.4 -2.2 19 11.1 WNW 20 28 11 15 1013.6 1011.3 0.0
19/05:30pm 22.8 17.1 -0.6 21 10.8 WSW 19 24 10 13 1013.4 1011.0 0.0
19/05:00pm 22.6 16.0 -3.7 17 11.4 W 22 35 12 19 1013.1 1010.8 0.0
19/04:30pm 23.2 16.7 -2.4 18 11.5 W 22 32 12 17 1013.1 1010.8 0.0
19/04:00pm 22.6 15.7 -2.9 18 11.3 WNW 24 32 13 17 1013.1 1010.8 0.0
19/03:30pm 23.2 16.6 -0.3 21 11.0 W 24 35 13 19 1013.3 1010.9 0.0
19/03:00pm 23.2 17.8 1.5 24 10.5 W 19 33 10 18 1013.3 1010.9 0.0
19/02:30pm 22.3 16.2 0.2 23 10.3 W 22 33 12 18 1013.1 1010.8 0.0
19/02:00pm 22.4 15.5 2.5 27 9.7 WNW 28 39 15 21 1013.0 1010.7 0.0
19/01:30pm 21.6 14.8 -1.6 21 10.4 W 24 35 13 19 1013.1 1010.8 0.0
19/01:00pm 21.3 15.2 -2.5 20 10.5 WNW 20 32 11 17 1013.1 1010.8 0.0
19/12:30pm 20.7 16.1 1.6 28 9.1 NW 15 28 8 15 1013.3 1010.9 0.0
19/12:00pm 20.5 16.6 3.3 32 8.4 WNW 13 26 7 14 1013.5 1011.1 0.0
19/11:30am 19.6 14.3 1.6 30 8.5 W 19 30 10 16 1013.5 1011.1 0.0
19/11:00am 19.9 15.9 4.8 37 7.6 NW 15 37 8 20 1013.3 1010.9 0.0
19/10:30am 18.8 14.8 2.6 34 7.7 W 13 24 7 13 1013.4 1011.0 0.0
19/10:00am 18.5 15.4 5.4 42 6.6 W 11 19 6 10 1013.3 1010.9 0.0
19/09:30am 17.4 13.0 2.6 37 7.0 SW 15 22 8 12 1013.5 1011.1 0.0
19/09:00am 17.1 13.5 4.8 44 6.1 W 13 20 7 11 1013.4 1011.0 0.0
19/08:30am 16.2 12.5 4.6 46 5.7 WNW 13 20 7 11 1013.1 1010.8 0.0
19/08:00am 15.1 12.3 5.0 51 4.9 N 9 13 5 7 1013.1 1010.8 0.0
19/07:30am 14.3 11.4 4.9 53 4.5 N 9 13 5 7 1012.7 1010.4 0.0
19/07:00am 12.8 10.8 7.0 68 2.9 NE 7 9 4 5 1012.5 1010.2 0.0
19/06:30am 9.2 7.0 5.4 77 1.8 NNE 6 9 3 5 1012.3 1009.9 0.0
19/06:00am 9.0 6.7 4.6 74 2.0 WSW 6 11 3 6 1011.9 1009.5 0.0
19/05:30am 9.9 6.9 4.3 68 2.6 SE 9 13 5 7 1011.7 1009.3 0.0
19/05:00am 11.6 6.8 4.6 62 3.3 WNW 19 22 10 12 1011.1 1008.8 0.0
19/04:30am 11.2 7.5 4.7 64 3.1 NW 13 17 7 9 1010.9 1008.5 0.0
19/04:00am 11.9 7.4 4.4 60 3.5 WNW 17 20 9 11 1010.6 1008.2 0.0
19/03:30am 9.9 6.9 4.1 67 2.7 WNW 9 15 5 8 1010.4 1008.0 0.0
19/03:00am 10.6 6.9 4.7 67 2.8 W 13 15 7 8 1010.1 1007.7 0.0
19/02:30am 10.9 9.7 4.8 66 2.9 CALM 0 6 0 3 1009.7 1007.4 0.0
19/02:00am 11.5 8.9 4.3 61 3.4 NW 7 9 4 5 1009.3 1006.9 0.0
19/01:30am 11.9 8.7 4.9 62 3.3 NW 11 13 6 7 1009.2 1006.8 0.0
19/01:00am 12.1 8.8 4.8 61 3.5 NNW 11 13 6 7 1009.4 1007.0 0.0
19/12:30am 10.8 9.4 3.8 62 3.2 CALM 0 2 0 1 1009.3 1006.9 0.0
19/12:00am 14.8 11.2 2.7 44 5.6 W 11 13 6 7 1009.3 1006.9 0.0
 
Date/Time
EDT
Temp
°C
App
Temp
°C
Dew
Point
Rel
Hum
%
Delta-T
°C
Wind Press
QNH
hPa
Press
MSL
hPa
Rain
since 9 am
mm
Dir
 
Spd
km/h
Gust
km/h
Spd
kts
Gust
kts
18/11:30pm 14.5 11.2 2.4 44 5.6 WNW 9 13 5 7 1009.0 1006.6 0.0
18/11:00pm 14.9 11.6 2.4 43 5.8 W 9 11 5 6 1008.9 1006.5 0.0
18/10:30pm 16.2 11.6 1.5 37 6.7 WNW 15 17 8 9 1008.8 1006.4 0.0
18/10:00pm 16.7 11.7 1.2 35 7.1 W 17 19 9 10 1008.8 1006.4 0.0
18/09:30pm 17.2 12.2 1.2 34 7.3 W 17 19 9 10 1008.8 1006.4 0.0
18/09:00pm 17.5 12.5 1.1 33 7.5 W 17 17 9 9 1008.6 1006.2 0.0
18/08:30pm 19.0 14.7 1.1 30 8.3 W 13 17 7 9 1008.4 1006.0 0.0
18/08:00pm 21.5 16.4 0.7 25 9.8 W 17 20 9 11 1008.1 1005.7 0.0
18/07:30pm 23.8 16.8 -0.5 20 11.3 W 26 39 14 21 1007.7 1005.3 0.0
18/07:00pm 24.6 17.3 0.2 20 11.6 W 28 39 15 21 1007.3 1004.9 0.0
18/06:30pm 25.3 17.5 1.4 21 11.7 W 32 48 17 26 1007.1 1004.7 0.0
18/06:00pm 25.7 17.8 1.1 20 12.0 W 32 50 17 27 1006.9 1004.5 0.0
18/05:59pm 25.8 18.1 -0.3 18 12.4 W 30 50 16 27 1006.9 1004.5 0.0
18/05:30pm 25.8 16.8 2.5 22 11.7 W 39 50 21 27 1006.8 1004.3 0.0
18/05:11pm 26.3 18.8 3.5 23 11.6 W 32 52 17 28 1006.7 1004.2 0.0
18/05:00pm 26.0 18.3 3.3 23 11.6 W 33 46 18 25 1006.7 1004.2 0.0
18/04:54pm 26.1 18.4 3.4 23 11.6 W 33 52 18 28 1006.7 1004.2 0.0
18/04:30pm 26.7 19.2 4.5 24 11.6 W 33 46 18 25 1006.6 1004.1 0.0
18/04:00pm 26.3 18.5 2.9 22 11.9 W 33 44 18 24 1006.4 1004.0 0.0
18/03:32pm 26.7 18.0 1.9 20 12.3 W 37 56 20 30 1006.6 1004.1 0.0
18/03:30pm 27.0 18.8 2.8 21 12.3 W 35 50 19 27 1006.6 1004.1 0.0
18/03:00pm 26.5 19.3 3.1 22 11.9 WNW 30 41 16 22 1006.4 1004.0 0.0
18/02:50pm 26.4 19.9 4.8 25 11.3 WNW 28 46 15 25 1006.8 1004.3 0.0
18/02:30pm 26.0 19.0 3.9 24 11.3 WNW 30 43 16 23 1006.9 1004.5 0.0
18/02:00pm 25.8 19.9 5.9 28 10.6 NNW 26 39 14 21 1007.2 1004.8 0.0
18/01:30pm 25.2 19.3 5.9 29 10.2 NW 26 39 14 21 1007.7 1005.3 0.0
18/01:00pm 24.8 19.1 5.1 28 10.3 NW 24 39 13 21 1008.0 1005.6 0.0
18/12:30pm 24.7 18.8 3.9 26 10.6 WNW 24 33 13 18 1008.4 1006.0 0.0
18/12:00pm 24.1 19.1 4.5 28 10.1 WNW 20 33 11 18 1008.6 1006.2 0.0
18/11:30am 23.2 19.8 6.0 33 9.0 NW 13 26 7 14 1008.8 1006.4 0.0
18/11:00am 22.3 20.5 9.5 44 7.1 ENE 9 15 5 8 1009.0 1006.6 0.0
18/10:30am 21.3 20.0 11.1 52 5.8 NNE 9 20 5 11 1009.6 1007.3 0.0
18/10:00am 20.3 18.5 12.0 59 4.8 N 13 19 7 10 1009.7 1007.4 0.0
18/09:30am 18.8 17.1 11.1 61 4.3 N 11 20 6 11 1010.1 1007.7 0.0
18/09:00am 17.9 16.6 11.2 65 3.8 NNE 9 15 5 8 1010.3 1007.9 0.0
18/08:37am 16.6 15.1 10.7 68 3.3 N 9 15 5 8 1010.6 1008.2 0.0
18/08:30am 16.4 14.6 10.9 70 3.0 NNE 11 15 6 8 1010.6 1008.2 0.0
18/08:19am 16.8 14.4 11.5 71 3.0 NNE 15 22 8 12 1010.7 1008.3 0.0
18/08:00am 16.0 12.8 11.4 74 2.6 NE 19 24 10 13 1010.8 1008.4 0.0
18/07:30am 14.7 11.3 10.7 77 2.2 NE 19 26 10 14 1010.6 1008.2 0.0
18/07:00am 14.1 13.3 11.1 82 1.6 NE 6 9 3 5 1010.5 1008.1 0.0
18/06:30am 12.3 11.6 10.0 86 1.2 ENE 4 7 2 4 1010.3 1007.9 0.0
18/06:07am 12.3 10.6 10.0 86 1.2 NE 9 11 5 6 1009.9 1007.5 0.0
18/06:00am 12.4 10.8 10.1 86 1.2 NE 9 13 5 7 1009.7 1007.4 0.0
18/05:30am 12.8 10.4 10.2 84 1.4 ENE 13 19 7 10 1009.5 1007.1 0.0
18/05:00am 13.2 11.3 10.4 83 1.5 ENE 11 15 6 8 1009.7 1007.4 0.0
18/04:30am 13.1 10.4 10.3 83 1.5 NE 15 20 8 11 1009.7 1007.4 0.0
18/04:00am 13.2 9.8 10.4 83 1.5 NE 19 26 10 14 1009.2 1006.8 0.0
18/03:30am 13.3 9.9 10.5 83 1.5 NE 19 28 10 15 1009.4 1007.0 0.0
18/03:00am 13.3 9.9 10.5 83 1.5 ENE 19 28 10 15 1009.5 1007.1 0.0
18/02:30am 13.5 10.9 10.7 83 1.5 ENE 15 24 8 13 1010.1 1007.7 0.0
18/02:00am 13.3 10.3 10.8 85 1.4 ENE 17 22 9 12 1010.2 1007.8 0.0
18/01:30am 13.1 10.5 10.8 86 1.2 ENE 15 20 8 11 1010.6 1008.2 0.0
18/01:00am 12.8 9.8 10.7 87 1.1 E 17 26 9 14 1010.8 1008.4 0.0
18/12:30am 12.8 9.8 10.7 87 1.1 E 17 20 9 11 1011.0 1008.7 0.0
18/12:00am 12.7 9.6 10.4 86 1.2 E 17 22 9 12 1011.3 1009.0 0.0
 
Date/Time
EDT
Temp
°C
App
Temp
°C
Dew
Point
Rel
Hum
%
Delta-T
°C
Wind Press
QNH
hPa
Press
MSL
hPa
Rain
since 9 am
mm
Dir
 
Spd
km/h
Gust
km/h
Spd
kts
Gust
kts
17/11:30pm 12.8 9.8 10.5 86 1.2 E 17 24 9 13 1011.7 1009.3 0.0
17/11:00pm 12.8 9.1 10.2 84 1.4 E 20 30 11 16 1012.0 1009.6 0.0
17/10:30pm 12.9 8.7 9.9 82 1.6 E 22 32 12 17 1011.8 1009.4 0.0
17/10:00pm 13.1 9.9 9.9 81 1.7 E 17 28 9 15 1011.8 1009.4 0.0
17/09:30pm 13.1 8.8 9.5 79 1.9 E 22 30 12 16 1011.4 1009.1 0.0
17/09:00pm 13.2 9.5 9.3 77 2.1 E 19 24 10 13 1011.1 1008.8 0.0
17/08:56pm 13.2 9.5 9.3 77 2.0 E 19 24 10 13 1011.0 1008.7 0.0
17/08:30pm 13.2 8.5 9.3 77 2.0 E 24 35 13 19 1010.8 1008.4 0.0
17/08:00pm 13.5 8.8 9.2 75 2.3 E 24 33 13 18 1010.4 1008.0 0.0
17/07:30pm 14.1 9.4 9.3 73 2.5 E 24 33 13 18 1009.9 1007.5 0.0
17/07:00pm 15.5 10.8 9.4 67 3.3 E 24 33 13 18 1009.4 1007.0 0.0
17/06:30pm 16.4 11.4 9.6 64 3.7 E 26 33 14 18 1008.9 1006.5 0.0
17/06:00pm 17.8 13.3 10.2 61 4.2 E 24 30 13 16 1008.3 1005.9 0.0
17/05:30pm 18.4 13.2 10.3 59 4.5 ENE 28 35 15 19 1007.8 1005.4 0.0
17/05:00pm 19.3 14.0 11.1 59 4.6 ENE 30 39 16 21 1007.5 1005.1 0.0
17/04:30pm 20.6 16.3 12.1 58 4.9 ENE 26 33 14 18 1007.3 1004.9 0.0
17/04:00pm 21.9 17.9 11.9 53 5.8 ENE 24 37 13 20 1007.2 1004.8 0.0
17/03:30pm 23.4 22.1 11.1 46 7.1 NE 9 24 5 13 1007.1 1004.7 0.0
17/03:00pm 24.9 21.1 5.7 29 10.1 WNW 15 37 8 20 1007.0 1004.6 0.0

Other Formats:

Comma delimited format used in spreadsheet applications
http://www.bom.gov.au/fwo/IDN60801/IDN60801.95716.axf

JavaScript Object Notation format (JSON) in row-major order
http://www.bom.gov.au/fwo/IDN60801/IDN60801.95716.json